sensor_id;sensor_type;location;lat;lon;timestamp;P1;durP1;ratioP1;P2;durP2;ratioP2
14153;SDS011;7157;53.144;7.570;2022-10-14T00:01:35;67.18;;;26.58;;
14153;SDS011;7157;53.144;7.570;2022-10-14T00:11:37;53.78;;;24.08;;
14153;SDS011;7157;53.144;7.570;2022-10-14T00:21:43;57.70;;;24.35;;
14153;SDS011;7157;53.144;7.570;2022-10-14T00:31:47;61.13;;;24.73;;
14153;SDS011;7157;53.144;7.570;2022-10-14T00:41:53;58.33;;;24.92;;
14153;SDS011;7157;53.144;7.570;2022-10-14T00:51:57;46.50;;;22.52;;
14153;SDS011;7157;53.144;7.570;2022-10-14T01:02:04;54.85;;;23.63;;
14153;SDS011;7157;53.144;7.570;2022-10-14T01:12:08;57.67;;;23.27;;
14153;SDS011;7157;53.144;7.570;2022-10-14T01:22:31;56.65;;;23.65;;
14153;SDS011;7157;53.144;7.570;2022-10-14T01:32:46;54.67;;;22.60;;
14153;SDS011;7157;53.144;7.570;2022-10-14T01:42:53;63.88;;;25.02;;
14153;SDS011;7157;53.144;7.570;2022-10-14T01:53:00;63.88;;;23.63;;
14153;SDS011;7157;53.144;7.570;2022-10-14T02:03:06;67.00;;;26.30;;
14153;SDS011;7157;53.144;7.570;2022-10-14T02:13:14;68.72;;;24.80;;
14153;SDS011;7157;53.144;7.570;2022-10-14T02:23:28;75.45;;;25.15;;
14153;SDS011;7157;53.144;7.570;2022-10-14T02:43:43;67.00;;;24.00;;
14153;SDS011;7157;53.144;7.570;2022-10-14T02:53:47;64.88;;;23.67;;
14153;SDS011;7157;53.144;7.570;2022-10-14T03:03:50;70.35;;;23.65;;
14153;SDS011;7157;53.144;7.570;2022-10-14T03:13:54;70.53;;;23.30;;
14153;SDS011;7157;53.144;7.570;2022-10-14T03:23:56;88.38;;;26.10;;
14153;SDS011;7157;53.144;7.570;2022-10-14T03:34:00;143.63;;;25.67;;
14153;SDS011;7157;53.144;7.570;2022-10-14T03:44:03;135.70;;;22.20;;
14153;SDS011;7157;53.144;7.570;2022-10-14T03:54:07;226.90;;;21.52;;
14153;SDS011;7157;53.144;7.570;2022-10-14T04:04:10;314.17;;;23.10;;
14153;SDS011;7157;53.144;7.570;2022-10-14T04:14:14;128.85;;;20.33;;
14153;SDS011;7157;53.144;7.570;2022-10-14T04:24:17;225.55;;;20.05;;
14153;SDS011;7157;53.144;7.570;2022-10-14T04:34:21;139.10;;;18.60;;
14153;SDS011;7157;53.144;7.570;2022-10-14T04:44:23;139.48;;;17.20;;
14153;SDS011;7157;53.144;7.570;2022-10-14T04:54:27;130.48;;;18.55;;
14153;SDS011;7157;53.144;7.570;2022-10-14T05:04:30;150.90;;;19.60;;
14153;SDS011;7157;53.144;7.570;2022-10-14T05:14:34;67.65;;;18.38;;
14153;SDS011;7157;53.144;7.570;2022-10-14T05:24:37;67.68;;;16.30;;
14153;SDS011;7157;53.144;7.570;2022-10-14T05:34:41;53.88;;;14.27;;
14153;SDS011;7157;53.144;7.570;2022-10-14T05:44:44;44.70;;;14.02;;
14153;SDS011;7157;53.144;7.570;2022-10-14T05:54:48;35.47;;;11.40;;
14153;SDS011;7157;53.144;7.570;2022-10-14T06:04:51;62.17;;;12.55;;
14153;SDS011;7157;53.144;7.570;2022-10-14T06:14:55;29.38;;;9.98;;
14153;SDS011;7157;53.144;7.570;2022-10-14T06:24:58;30.52;;;9.85;;
14153;SDS011;7157;53.144;7.570;2022-10-14T06:35:06;34.40;;;10.63;;
14153;SDS011;7157;53.144;7.570;2022-10-14T06:45:09;40.92;;;12.30;;
14153;SDS011;7157;53.144;7.570;2022-10-14T06:55:14;35.83;;;11.73;;
14153;SDS011;7157;53.144;7.570;2022-10-14T07:05:17;37.42;;;12.35;;
14153;SDS011;7157;53.144;7.570;2022-10-14T07:15:21;39.40;;;12.02;;
14153;SDS011;7157;53.144;7.570;2022-10-14T07:25:24;47.28;;;13.85;;
14153;SDS011;7157;53.144;7.570;2022-10-14T07:35:28;31.80;;;12.20;;
14153;SDS011;7157;53.144;7.570;2022-10-14T07:45:31;41.13;;;13.23;;
14153;SDS011;7157;53.144;7.570;2022-10-14T07:55:37;39.25;;;13.32;;
14153;SDS011;7157;53.144;7.570;2022-10-14T08:05:57;36.60;;;12.55;;
14153;SDS011;7157;53.144;7.570;2022-10-14T08:16:01;36.10;;;13.48;;
14153;SDS011;7157;53.144;7.570;2022-10-14T08:26:09;35.38;;;13.02;;
14153;SDS011;7157;53.144;7.570;2022-10-14T08:36:21;32.90;;;12.82;;
14153;SDS011;7157;53.144;7.570;2022-10-14T08:46:26;29.38;;;12.20;;
14153;SDS011;7157;53.144;7.570;2022-10-14T08:56:35;34.78;;;13.35;;
14153;SDS011;7157;53.144;7.570;2022-10-14T09:06:39;31.50;;;12.50;;
14153;SDS011;7157;53.144;7.570;2022-10-14T09:16:45;32.42;;;12.60;;
14153;SDS011;7157;53.144;7.570;2022-10-14T09:26:55;34.28;;;13.02;;
14153;SDS011;7157;53.144;7.570;2022-10-14T09:37:04;33.10;;;12.82;;
14153;SDS011;7157;53.144;7.570;2022-10-14T09:47:16;29.95;;;13.57;;
14153;SDS011;7157;53.144;7.570;2022-10-14T09:57:21;27.10;;;12.13;;
14153;SDS011;7157;53.144;7.570;2022-10-14T10:07:28;30.38;;;13.65;;
14153;SDS011;7157;53.144;7.570;2022-10-14T10:17:34;35.03;;;12.88;;
14153;SDS011;7157;53.144;7.570;2022-10-14T10:27:41;28.58;;;13.20;;
14153;SDS011;7157;53.144;7.570;2022-10-14T10:37:56;28.17;;;11.52;;
14153;SDS011;7157;53.144;7.570;2022-10-14T10:48:08;29.92;;;12.27;;
14153;SDS011;7157;53.144;7.570;2022-10-14T11:08:31;32.58;;;13.63;;
14153;SDS011;7157;53.144;7.570;2022-10-14T11:19:05;31.55;;;14.55;;
14153;SDS011;7157;53.144;7.570;2022-10-14T11:40:00;38.28;;;14.07;;
14153;SDS011;7157;53.144;7.570;2022-10-14T11:50:11;37.83;;;16.50;;
14153;SDS011;7157;53.144;7.570;2022-10-14T12:00:20;45.72;;;16.90;;
14153;SDS011;7157;53.144;7.570;2022-10-14T12:10:43;39.55;;;17.10;;
14153;SDS011;7157;53.144;7.570;2022-10-14T12:20:50;45.33;;;18.10;;
14153;SDS011;7157;53.144;7.570;2022-10-14T12:41:37;51.67;;;18.80;;
14153;SDS011;7157;53.144;7.570;2022-10-14T12:51:51;51.00;;;20.05;;
14153;SDS011;7157;53.144;7.570;2022-10-14T13:01:57;55.13;;;21.13;;
14153;SDS011;7157;53.144;7.570;2022-10-14T13:22:42;68.75;;;23.75;;
14153;SDS011;7157;53.144;7.570;2022-10-14T13:32:46;68.40;;;22.83;;
14153;SDS011;7157;53.144;7.570;2022-10-14T13:42:55;69.05;;;23.15;;
14153;SDS011;7157;53.144;7.570;2022-10-14T13:52:59;65.35;;;23.73;;
14153;SDS011;7157;53.144;7.570;2022-10-14T14:03:09;62.47;;;23.33;;
14153;SDS011;7157;53.144;7.570;2022-10-14T14:13:18;58.75;;;21.85;;
14153;SDS011;7157;53.144;7.570;2022-10-14T14:23:23;58.20;;;21.33;;
14153;SDS011;7157;53.144;7.570;2022-10-14T14:33:27;52.35;;;20.88;;
14153;SDS011;7157;53.144;7.570;2022-10-14T14:43:33;48.33;;;20.05;;
14153;SDS011;7157;53.144;7.570;2022-10-14T14:53:45;40.05;;;17.77;;
14153;SDS011;7157;53.144;7.570;2022-10-14T15:03:54;36.80;;;16.42;;
14153;SDS011;7157;53.144;7.570;2022-10-14T15:14:24;29.70;;;13.98;;
14153;SDS011;7157;53.144;7.570;2022-10-14T15:24:32;30.55;;;13.65;;
14153;SDS011;7157;53.144;7.570;2022-10-14T15:34:34;32.60;;;15.18;;
14153;SDS011;7157;53.144;7.570;2022-10-14T15:44:38;30.08;;;16.05;;
14153;SDS011;7157;53.144;7.570;2022-10-14T15:54:41;31.88;;;14.00;;
14153;SDS011;7157;53.144;7.570;2022-10-14T16:04:47;32.08;;;14.93;;
14153;SDS011;7157;53.144;7.570;2022-10-14T16:15:28;25.63;;;14.63;;
14153;SDS011;7157;53.144;7.570;2022-10-14T16:25:36;27.95;;;14.55;;
14153;SDS011;7157;53.144;7.570;2022-10-14T16:35:40;28.33;;;14.80;;
14153;SDS011;7157;53.144;7.570;2022-10-14T16:45:45;25.83;;;13.85;;
14153;SDS011;7157;53.144;7.570;2022-10-14T16:55:47;23.10;;;13.20;;
14153;SDS011;7157;53.144;7.570;2022-10-14T17:05:56;25.48;;;14.07;;
14153;SDS011;7157;53.144;7.570;2022-10-14T17:15:59;27.37;;;15.47;;
14153;SDS011;7157;53.144;7.570;2022-10-14T17:26:04;27.15;;;13.75;;
14153;SDS011;7157;53.144;7.570;2022-10-14T17:36:08;26.85;;;13.65;;
14153;SDS011;7157;53.144;7.570;2022-10-14T17:46:20;29.77;;;15.88;;
14153;SDS011;7157;53.144;7.570;2022-10-14T17:56:25;28.52;;;14.85;;
14153;SDS011;7157;53.144;7.570;2022-10-14T18:06:31;23.65;;;12.50;;
14153;SDS011;7157;53.144;7.570;2022-10-14T18:16:36;28.52;;;15.07;;
14153;SDS011;7157;53.144;7.570;2022-10-14T18:26:41;30.55;;;15.23;;
14153;SDS011;7157;53.144;7.570;2022-10-14T18:36:44;29.83;;;14.10;;
14153;SDS011;7157;53.144;7.570;2022-10-14T18:46:49;29.25;;;13.95;;
14153;SDS011;7157;53.144;7.570;2022-10-14T18:56:52;25.90;;;12.05;;
14153;SDS011;7157;53.144;7.570;2022-10-14T19:06:56;26.38;;;12.27;;
14153;SDS011;7157;53.144;7.570;2022-10-14T19:16:58;23.05;;;11.15;;
14153;SDS011;7157;53.144;7.570;2022-10-14T19:27:02;23.25;;;11.13;;
14153;SDS011;7157;53.144;7.570;2022-10-14T19:37:05;23.98;;;11.90;;
14153;SDS011;7157;53.144;7.570;2022-10-14T19:47:09;23.00;;;10.93;;
14153;SDS011;7157;53.144;7.570;2022-10-14T19:57:12;25.58;;;12.32;;
14153;SDS011;7157;53.144;7.570;2022-10-14T20:07:16;26.27;;;12.82;;
14153;SDS011;7157;53.144;7.570;2022-10-14T20:17:19;31.85;;;13.85;;
14153;SDS011;7157;53.144;7.570;2022-10-14T20:27:23;32.78;;;14.15;;
14153;SDS011;7157;53.144;7.570;2022-10-14T20:37:28;36.67;;;14.05;;
14153;SDS011;7157;53.144;7.570;2022-10-14T20:47:33;34.70;;;14.55;;
14153;SDS011;7157;53.144;7.570;2022-10-14T20:57:35;36.25;;;14.93;;
14153;SDS011;7157;53.144;7.570;2022-10-14T21:07:40;38.47;;;15.05;;
14153;SDS011;7157;53.144;7.570;2022-10-14T21:17:45;40.08;;;15.32;;
14153;SDS011;7157;53.144;7.570;2022-10-14T21:27:50;36.42;;;14.43;;
14153;SDS011;7157;53.144;7.570;2022-10-14T21:37:52;38.47;;;15.63;;
14153;SDS011;7157;53.144;7.570;2022-10-14T21:47:56;41.35;;;15.25;;
14153;SDS011;7157;53.144;7.570;2022-10-14T21:58:04;38.00;;;15.05;;
14153;SDS011;7157;53.144;7.570;2022-10-14T22:08:08;36.33;;;14.63;;
14153;SDS011;7157;53.144;7.570;2022-10-14T22:18:11;31.70;;;13.27;;
14153;SDS011;7157;53.144;7.570;2022-10-14T22:28:15;38.13;;;14.75;;
14153;SDS011;7157;53.144;7.570;2022-10-14T22:38:17;36.90;;;15.30;;
14153;SDS011;7157;53.144;7.570;2022-10-14T22:48:21;44.10;;;15.25;;
14153;SDS011;7157;53.144;7.570;2022-10-14T22:58:24;33.05;;;15.02;;
14153;SDS011;7157;53.144;7.570;2022-10-14T23:08:28;41.13;;;16.67;;
14153;SDS011;7157;53.144;7.570;2022-10-14T23:18:32;43.45;;;17.42;;
14153;SDS011;7157;53.144;7.570;2022-10-14T23:28:37;44.45;;;17.92;;
14153;SDS011;7157;53.144;7.570;2022-10-14T23:38:41;45.90;;;17.50;;
14153;SDS011;7157;53.144;7.570;2022-10-14T23:48:46;44.35;;;17.27;;
14153;SDS011;7157;53.144;7.570;2022-10-14T23:59:08;45.00;;;18.15;;
